sensor_id;sensor_type;location;lat;lon;timestamp;P1;durP1;ratioP1;P2;durP2;ratioP2
13959;SDS011;7052;51.050;3.716;2022-12-29T00:00:16;2.13;;;1.50;;
13959;SDS011;7052;51.050;3.716;2022-12-29T00:02:44;1.63;;;1.53;;
13959;SDS011;7052;51.050;3.716;2022-12-29T00:05:10;2.20;;;1.60;;
13959;SDS011;7052;51.050;3.716;2022-12-29T00:07:39;1.97;;;1.80;;
13959;SDS011;7052;51.050;3.716;2022-12-29T00:10:06;3.20;;;1.50;;
13959;SDS011;7052;51.050;3.716;2022-12-29T00:12:34;1.73;;;1.50;;
13959;SDS011;7052;51.050;3.716;2022-12-29T00:15:18;1.77;;;1.30;;
13959;SDS011;7052;51.050;3.716;2022-12-29T00:18:03;2.43;;;1.50;;
13959;SDS011;7052;51.050;3.716;2022-12-29T00:20:32;2.17;;;1.70;;
13959;SDS011;7052;51.050;3.716;2022-12-29T00:23:19;2.00;;;1.40;;
13959;SDS011;7052;51.050;3.716;2022-12-29T00:26:03;2.33;;;1.50;;
13959;SDS011;7052;51.050;3.716;2022-12-29T00:28:58;1.40;;;1.30;;
13959;SDS011;7052;51.050;3.716;2022-12-29T00:31:43;2.53;;;2.20;;
13959;SDS011;7052;51.050;3.716;2022-12-29T00:34:29;1.87;;;1.60;;
13959;SDS011;7052;51.050;3.716;2022-12-29T00:37:14;2.20;;;1.53;;
13959;SDS011;7052;51.050;3.716;2022-12-29T00:40:07;3.17;;;1.50;;
13959;SDS011;7052;51.050;3.716;2022-12-29T00:42:52;3.03;;;1.37;;
13959;SDS011;7052;51.050;3.716;2022-12-29T00:45:36;2.80;;;1.40;;
13959;SDS011;7052;51.050;3.716;2022-12-29T00:48:05;2.17;;;1.40;;
13959;SDS011;7052;51.050;3.716;2022-12-29T00:50:32;2.07;;;1.20;;
13959;SDS011;7052;51.050;3.716;2022-12-29T00:52:58;3.13;;;1.40;;
13959;SDS011;7052;51.050;3.716;2022-12-29T00:55:28;1.67;;;1.30;;
13959;SDS011;7052;51.050;3.716;2022-12-29T00:57:55;3.47;;;1.33;;
13959;SDS011;7052;51.050;3.716;2022-12-29T01:00:23;2.83;;;1.50;;
13959;SDS011;7052;51.050;3.716;2022-12-29T01:02:50;4.07;;;1.60;;
13959;SDS011;7052;51.050;3.716;2022-12-29T01:05:17;2.57;;;1.50;;
13959;SDS011;7052;51.050;3.716;2022-12-29T01:07:43;2.80;;;1.30;;
13959;SDS011;7052;51.050;3.716;2022-12-29T01:10:13;5.43;;;1.60;;
13959;SDS011;7052;51.050;3.716;2022-12-29T01:12:42;3.57;;;1.80;;
13959;SDS011;7052;51.050;3.716;2022-12-29T01:15:12;2.10;;;1.40;;
13959;SDS011;7052;51.050;3.716;2022-12-29T01:17:41;3.03;;;1.30;;
13959;SDS011;7052;51.050;3.716;2022-12-29T01:20:09;3.77;;;1.50;;
13959;SDS011;7052;51.050;3.716;2022-12-29T01:22:36;3.67;;;1.63;;
13959;SDS011;7052;51.050;3.716;2022-12-29T01:25:04;1.90;;;1.40;;
13959;SDS011;7052;51.050;3.716;2022-12-29T01:27:33;2.73;;;1.50;;
13959;SDS011;7052;51.050;3.716;2022-12-29T01:30:11;2.80;;;1.30;;
13959;SDS011;7052;51.050;3.716;2022-12-29T01:32:38;5.53;;;2.10;;
13959;SDS011;7052;51.050;3.716;2022-12-29T01:35:05;4.20;;;1.87;;
13959;SDS011;7052;51.050;3.716;2022-12-29T01:37:33;3.57;;;1.70;;
13959;SDS011;7052;51.050;3.716;2022-12-29T01:39:59;3.93;;;1.73;;
13959;SDS011;7052;51.050;3.716;2022-12-29T01:42:27;3.00;;;1.47;;
13959;SDS011;7052;51.050;3.716;2022-12-29T01:44:55;2.90;;;1.70;;
13959;SDS011;7052;51.050;3.716;2022-12-29T01:47:29;3.77;;;1.57;;
13959;SDS011;7052;51.050;3.716;2022-12-29T01:50:02;2.60;;;1.50;;
13959;SDS011;7052;51.050;3.716;2022-12-29T01:52:32;4.97;;;1.60;;
13959;SDS011;7052;51.050;3.716;2022-12-29T01:55:03;3.73;;;1.80;;
13959;SDS011;7052;51.050;3.716;2022-12-29T01:57:34;3.57;;;1.40;;
13959;SDS011;7052;51.050;3.716;2022-12-29T02:00:05;4.00;;;1.63;;
13959;SDS011;7052;51.050;3.716;2022-12-29T02:02:36;2.87;;;1.67;;
13959;SDS011;7052;51.050;3.716;2022-12-29T02:05:05;5.70;;;1.70;;
13959;SDS011;7052;51.050;3.716;2022-12-29T02:07:37;3.93;;;1.60;;
13959;SDS011;7052;51.050;3.716;2022-12-29T02:10:05;4.97;;;1.70;;
13959;SDS011;7052;51.050;3.716;2022-12-29T02:12:33;3.27;;;1.60;;
13959;SDS011;7052;51.050;3.716;2022-12-29T02:15:06;3.37;;;1.77;;
13959;SDS011;7052;51.050;3.716;2022-12-29T02:17:39;4.10;;;1.60;;
13959;SDS011;7052;51.050;3.716;2022-12-29T02:20:30;5.37;;;1.70;;
13959;SDS011;7052;51.050;3.716;2022-12-29T02:23:43;3.67;;;1.60;;
13959;SDS011;7052;51.050;3.716;2022-12-29T02:26:29;3.00;;;1.60;;
13959;SDS011;7052;51.050;3.716;2022-12-29T02:29:34;2.47;;;1.37;;
13959;SDS011;7052;51.050;3.716;2022-12-29T02:32:15;2.97;;;1.60;;
13959;SDS011;7052;51.050;3.716;2022-12-29T02:34:50;2.87;;;1.50;;
13959;SDS011;7052;51.050;3.716;2022-12-29T02:37:25;3.30;;;1.50;;
13959;SDS011;7052;51.050;3.716;2022-12-29T02:40:00;3.03;;;1.70;;
13959;SDS011;7052;51.050;3.716;2022-12-29T02:42:42;4.60;;;1.93;;
13959;SDS011;7052;51.050;3.716;2022-12-29T02:45:15;4.10;;;1.60;;
13959;SDS011;7052;51.050;3.716;2022-12-29T02:47:50;3.27;;;1.60;;
13959;SDS011;7052;51.050;3.716;2022-12-29T02:50:24;3.17;;;1.50;;
13959;SDS011;7052;51.050;3.716;2022-12-29T02:52:57;4.03;;;1.60;;
13959;SDS011;7052;51.050;3.716;2022-12-29T02:55:27;3.83;;;1.80;;
13959;SDS011;7052;51.050;3.716;2022-12-29T02:58:11;3.10;;;1.27;;
13959;SDS011;7052;51.050;3.716;2022-12-29T03:00:44;3.97;;;1.63;;
13959;SDS011;7052;51.050;3.716;2022-12-29T03:03:24;2.83;;;1.60;;
13959;SDS011;7052;51.050;3.716;2022-12-29T03:06:08;5.33;;;1.90;;
13959;SDS011;7052;51.050;3.716;2022-12-29T03:08:48;7.60;;;2.10;;
13959;SDS011;7052;51.050;3.716;2022-12-29T03:11:23;3.30;;;1.23;;
13959;SDS011;7052;51.050;3.716;2022-12-29T03:14:29;4.67;;;1.60;;
13959;SDS011;7052;51.050;3.716;2022-12-29T03:17:20;4.60;;;1.40;;
13959;SDS011;7052;51.050;3.716;2022-12-29T03:19:59;2.87;;;1.60;;
13959;SDS011;7052;51.050;3.716;2022-12-29T03:22:31;5.50;;;1.90;;
13959;SDS011;7052;51.050;3.716;2022-12-29T03:25:03;5.53;;;1.83;;
13959;SDS011;7052;51.050;3.716;2022-12-29T03:27:36;4.87;;;1.73;;
13959;SDS011;7052;51.050;3.716;2022-12-29T03:30:07;4.50;;;1.83;;
13959;SDS011;7052;51.050;3.716;2022-12-29T03:32:43;5.40;;;2.00;;
13959;SDS011;7052;51.050;3.716;2022-12-29T03:35:15;5.90;;;1.90;;
13959;SDS011;7052;51.050;3.716;2022-12-29T03:37:47;5.83;;;1.90;;
13959;SDS011;7052;51.050;3.716;2022-12-29T03:40:18;5.67;;;2.20;;
13959;SDS011;7052;51.050;3.716;2022-12-29T03:42:49;4.70;;;1.80;;
13959;SDS011;7052;51.050;3.716;2022-12-29T03:45:17;7.53;;;1.93;;
13959;SDS011;7052;51.050;3.716;2022-12-29T03:47:45;5.57;;;2.10;;
13959;SDS011;7052;51.050;3.716;2022-12-29T03:50:12;4.70;;;1.80;;
13959;SDS011;7052;51.050;3.716;2022-12-29T03:52:40;7.23;;;2.33;;
13959;SDS011;7052;51.050;3.716;2022-12-29T03:55:08;5.33;;;1.93;;
13959;SDS011;7052;51.050;3.716;2022-12-29T03:57:35;4.40;;;1.83;;
13959;SDS011;7052;51.050;3.716;2022-12-29T04:00:03;7.47;;;2.10;;
13959;SDS011;7052;51.050;3.716;2022-12-29T04:02:34;5.20;;;1.80;;
13959;SDS011;7052;51.050;3.716;2022-12-29T04:05:01;4.70;;;1.83;;
13959;SDS011;7052;51.050;3.716;2022-12-29T04:07:29;5.33;;;1.97;;
13959;SDS011;7052;51.050;3.716;2022-12-29T04:09:56;4.10;;;2.20;;
13959;SDS011;7052;51.050;3.716;2022-12-29T04:12:23;8.20;;;2.20;;
13959;SDS011;7052;51.050;3.716;2022-12-29T04:14:52;8.37;;;1.97;;
13959;SDS011;7052;51.050;3.716;2022-12-29T04:17:19;6.60;;;2.10;;
13959;SDS011;7052;51.050;3.716;2022-12-29T04:19:49;8.33;;;2.30;;
13959;SDS011;7052;51.050;3.716;2022-12-29T04:22:16;6.50;;;2.00;;
13959;SDS011;7052;51.050;3.716;2022-12-29T04:24:45;6.10;;;1.93;;
13959;SDS011;7052;51.050;3.716;2022-12-29T04:27:11;6.67;;;2.20;;
13959;SDS011;7052;51.050;3.716;2022-12-29T04:29:39;8.83;;;2.20;;
13959;SDS011;7052;51.050;3.716;2022-12-29T04:32:06;5.10;;;1.80;;
13959;SDS011;7052;51.050;3.716;2022-12-29T04:34:32;7.57;;;2.13;;
13959;SDS011;7052;51.050;3.716;2022-12-29T04:37:00;7.23;;;2.30;;
13959;SDS011;7052;51.050;3.716;2022-12-29T04:39:27;6.20;;;1.97;;
13959;SDS011;7052;51.050;3.716;2022-12-29T04:41:55;3.73;;;1.80;;
13959;SDS011;7052;51.050;3.716;2022-12-29T04:44:22;5.83;;;1.90;;
13959;SDS011;7052;51.050;3.716;2022-12-29T04:46:49;9.17;;;2.20;;
13959;SDS011;7052;51.050;3.716;2022-12-29T04:49:16;6.43;;;2.20;;
13959;SDS011;7052;51.050;3.716;2022-12-29T04:51:44;4.37;;;1.80;;
13959;SDS011;7052;51.050;3.716;2022-12-29T04:54:11;12.53;;;2.70;;
13959;SDS011;7052;51.050;3.716;2022-12-29T04:56:38;5.47;;;1.60;;
13959;SDS011;7052;51.050;3.716;2022-12-29T04:59:08;6.43;;;2.20;;
13959;SDS011;7052;51.050;3.716;2022-12-29T05:01:38;3.33;;;1.80;;
13959;SDS011;7052;51.050;3.716;2022-12-29T05:04:05;5.50;;;1.80;;
13959;SDS011;7052;51.050;3.716;2022-12-29T05:06:33;5.27;;;1.67;;
13959;SDS011;7052;51.050;3.716;2022-12-29T05:09:00;5.80;;;1.80;;
13959;SDS011;7052;51.050;3.716;2022-12-29T05:11:27;6.93;;;1.97;;
13959;SDS011;7052;51.050;3.716;2022-12-29T05:13:54;5.63;;;1.80;;
13959;SDS011;7052;51.050;3.716;2022-12-29T05:16:24;5.63;;;1.87;;
13959;SDS011;7052;51.050;3.716;2022-12-29T05:18:50;7.03;;;1.97;;
13959;SDS011;7052;51.050;3.716;2022-12-29T05:21:17;6.03;;;1.93;;
13959;SDS011;7052;51.050;3.716;2022-12-29T05:23:44;4.07;;;1.50;;
13959;SDS011;7052;51.050;3.716;2022-12-29T05:26:11;5.07;;;1.80;;
13959;SDS011;7052;51.050;3.716;2022-12-29T05:28:39;5.00;;;1.90;;
13959;SDS011;7052;51.050;3.716;2022-12-29T05:31:07;4.73;;;1.70;;
13959;SDS011;7052;51.050;3.716;2022-12-29T05:33:37;4.37;;;1.63;;
13959;SDS011;7052;51.050;3.716;2022-12-29T05:36:04;6.53;;;1.60;;
13959;SDS011;7052;51.050;3.716;2022-12-29T05:38:32;4.27;;;1.70;;
13959;SDS011;7052;51.050;3.716;2022-12-29T05:40:59;4.87;;;1.87;;
13959;SDS011;7052;51.050;3.716;2022-12-29T05:43:28;6.40;;;1.90;;
13959;SDS011;7052;51.050;3.716;2022-12-29T05:45:55;5.57;;;2.50;;
13959;SDS011;7052;51.050;3.716;2022-12-29T05:48:27;6.13;;;2.10;;
13959;SDS011;7052;51.050;3.716;2022-12-29T05:50:57;6.80;;;2.23;;
13959;SDS011;7052;51.050;3.716;2022-12-29T05:53:26;7.23;;;2.13;;
13959;SDS011;7052;51.050;3.716;2022-12-29T05:55:55;4.53;;;1.77;;
13959;SDS011;7052;51.050;3.716;2022-12-29T05:58:21;5.23;;;1.90;;
13959;SDS011;7052;51.050;3.716;2022-12-29T06:00:48;7.43;;;2.27;;
13959;SDS011;7052;51.050;3.716;2022-12-29T06:03:15;4.67;;;1.80;;
13959;SDS011;7052;51.050;3.716;2022-12-29T06:05:44;7.30;;;2.30;;
13959;SDS011;7052;51.050;3.716;2022-12-29T06:08:12;8.03;;;2.30;;
13959;SDS011;7052;51.050;3.716;2022-12-29T06:10:39;5.43;;;1.80;;
13959;SDS011;7052;51.050;3.716;2022-12-29T06:13:06;8.93;;;2.10;;
13959;SDS011;7052;51.050;3.716;2022-12-29T06:15:34;6.70;;;2.23;;
13959;SDS011;7052;51.050;3.716;2022-12-29T06:18:02;9.13;;;2.50;;
13959;SDS011;7052;51.050;3.716;2022-12-29T06:20:29;9.43;;;2.30;;
13959;SDS011;7052;51.050;3.716;2022-12-29T06:22:56;6.43;;;2.03;;
13959;SDS011;7052;51.050;3.716;2022-12-29T06:25:25;10.50;;;2.97;;
13959;SDS011;7052;51.050;3.716;2022-12-29T06:27:52;7.83;;;2.30;;
13959;SDS011;7052;51.050;3.716;2022-12-29T06:30:19;9.03;;;2.77;;
13959;SDS011;7052;51.050;3.716;2022-12-29T06:32:46;8.43;;;2.30;;
13959;SDS011;7052;51.050;3.716;2022-12-29T06:35:17;7.33;;;2.13;;
13959;SDS011;7052;51.050;3.716;2022-12-29T06:37:44;6.27;;;1.87;;
13959;SDS011;7052;51.050;3.716;2022-12-29T06:40:11;7.57;;;2.53;;
13959;SDS011;7052;51.050;3.716;2022-12-29T06:42:39;7.53;;;2.27;;
13959;SDS011;7052;51.050;3.716;2022-12-29T06:45:06;10.73;;;2.80;;
13959;SDS011;7052;51.050;3.716;2022-12-29T06:47:39;9.50;;;2.40;;
13959;SDS011;7052;51.050;3.716;2022-12-29T06:50:12;7.60;;;2.53;;
13959;SDS011;7052;51.050;3.716;2022-12-29T06:52:40;7.07;;;2.30;;
13959;SDS011;7052;51.050;3.716;2022-12-29T06:55:09;10.70;;;3.80;;
13959;SDS011;7052;51.050;3.716;2022-12-29T06:57:37;6.03;;;2.30;;
13959;SDS011;7052;51.050;3.716;2022-12-29T07:00:07;9.33;;;2.57;;
13959;SDS011;7052;51.050;3.716;2022-12-29T07:02:37;20.03;;;5.63;;
13959;SDS011;7052;51.050;3.716;2022-12-29T07:05:04;10.30;;;2.50;;
13959;SDS011;7052;51.050;3.716;2022-12-29T07:07:34;6.60;;;2.43;;
13959;SDS011;7052;51.050;3.716;2022-12-29T07:10:01;8.83;;;3.30;;
13959;SDS011;7052;51.050;3.716;2022-12-29T07:12:29;8.87;;;2.43;;
13959;SDS011;7052;51.050;3.716;2022-12-29T07:15:03;14.27;;;2.93;;
13959;SDS011;7052;51.050;3.716;2022-12-29T07:17:33;8.13;;;2.33;;
13959;SDS011;7052;51.050;3.716;2022-12-29T07:20:00;9.33;;;2.70;;
13959;SDS011;7052;51.050;3.716;2022-12-29T07:22:27;9.70;;;2.97;;
13959;SDS011;7052;51.050;3.716;2022-12-29T07:24:55;9.37;;;2.40;;
13959;SDS011;7052;51.050;3.716;2022-12-29T07:27:21;8.70;;;2.50;;
13959;SDS011;7052;51.050;3.716;2022-12-29T07:29:49;5.97;;;2.57;;
13959;SDS011;7052;51.050;3.716;2022-12-29T07:32:18;7.83;;;2.33;;
13959;SDS011;7052;51.050;3.716;2022-12-29T07:34:46;10.00;;;2.40;;
13959;SDS011;7052;51.050;3.716;2022-12-29T07:37:15;7.80;;;2.53;;
13959;SDS011;7052;51.050;3.716;2022-12-29T07:39:42;9.00;;;2.40;;
13959;SDS011;7052;51.050;3.716;2022-12-29T07:42:12;12.77;;;3.10;;
13959;SDS011;7052;51.050;3.716;2022-12-29T07:44:40;7.10;;;2.30;;
13959;SDS011;7052;51.050;3.716;2022-12-29T07:47:07;10.20;;;2.70;;
13959;SDS011;7052;51.050;3.716;2022-12-29T07:49:35;9.60;;;2.43;;
13959;SDS011;7052;51.050;3.716;2022-12-29T07:52:05;11.53;;;2.90;;
13959;SDS011;7052;51.050;3.716;2022-12-29T07:54:32;9.40;;;3.10;;
13959;SDS011;7052;51.050;3.716;2022-12-29T07:57:02;12.30;;;2.47;;
13959;SDS011;7052;51.050;3.716;2022-12-29T07:59:32;6.30;;;2.53;;
13959;SDS011;7052;51.050;3.716;2022-12-29T08:01:59;7.63;;;2.40;;
13959;SDS011;7052;51.050;3.716;2022-12-29T08:04:26;9.93;;;3.13;;
13959;SDS011;7052;51.050;3.716;2022-12-29T08:06:53;9.57;;;3.17;;
13959;SDS011;7052;51.050;3.716;2022-12-29T08:09:35;8.57;;;3.10;;
13959;SDS011;7052;51.050;3.716;2022-12-29T08:12:04;8.57;;;2.47;;
13959;SDS011;7052;51.050;3.716;2022-12-29T08:14:31;8.70;;;2.60;;
13959;SDS011;7052;51.050;3.716;2022-12-29T08:17:13;11.57;;;2.80;;
13959;SDS011;7052;51.050;3.716;2022-12-29T08:19:41;10.20;;;2.90;;
13959;SDS011;7052;51.050;3.716;2022-12-29T08:22:10;10.03;;;2.60;;
13959;SDS011;7052;51.050;3.716;2022-12-29T08:24:38;9.70;;;2.80;;
13959;SDS011;7052;51.050;3.716;2022-12-29T08:27:14;7.60;;;2.40;;
13959;SDS011;7052;51.050;3.716;2022-12-29T08:29:41;8.03;;;2.37;;
13959;SDS011;7052;51.050;3.716;2022-12-29T08:32:09;4.67;;;2.20;;
13959;SDS011;7052;51.050;3.716;2022-12-29T08:34:36;8.50;;;2.80;;
13959;SDS011;7052;51.050;3.716;2022-12-29T08:37:03;6.27;;;2.00;;
13959;SDS011;7052;51.050;3.716;2022-12-29T08:39:32;9.27;;;2.17;;
13959;SDS011;7052;51.050;3.716;2022-12-29T08:42:01;9.10;;;3.07;;
13959;SDS011;7052;51.050;3.716;2022-12-29T08:44:31;10.53;;;3.43;;
13959;SDS011;7052;51.050;3.716;2022-12-29T08:47:01;9.47;;;3.13;;
13959;SDS011;7052;51.050;3.716;2022-12-29T08:49:28;9.70;;;2.67;;
13959;SDS011;7052;51.050;3.716;2022-12-29T08:51:55;7.57;;;2.10;;
13959;SDS011;7052;51.050;3.716;2022-12-29T08:54:22;8.50;;;3.17;;
13959;SDS011;7052;51.050;3.716;2022-12-29T08:56:51;7.73;;;2.83;;
13959;SDS011;7052;51.050;3.716;2022-12-29T08:59:20;9.00;;;3.30;;
13959;SDS011;7052;51.050;3.716;2022-12-29T09:01:47;8.30;;;2.30;;
13959;SDS011;7052;51.050;3.716;2022-12-29T09:04:15;6.23;;;1.93;;
13959;SDS011;7052;51.050;3.716;2022-12-29T09:06:44;9.20;;;3.00;;
13959;SDS011;7052;51.050;3.716;2022-12-29T09:09:12;9.53;;;2.67;;
13959;SDS011;7052;51.050;3.716;2022-12-29T09:11:40;10.97;;;2.90;;
13959;SDS011;7052;51.050;3.716;2022-12-29T09:14:08;13.70;;;2.73;;
13959;SDS011;7052;51.050;3.716;2022-12-29T09:16:38;15.07;;;3.03;;
13959;SDS011;7052;51.050;3.716;2022-12-29T09:19:24;13.93;;;3.20;;
13959;SDS011;7052;51.050;3.716;2022-12-29T09:21:50;14.00;;;3.60;;
13959;SDS011;7052;51.050;3.716;2022-12-29T09:24:19;10.50;;;3.10;;
13959;SDS011;7052;51.050;3.716;2022-12-29T09:26:46;9.30;;;2.73;;
13959;SDS011;7052;51.050;3.716;2022-12-29T09:29:14;11.13;;;3.20;;
13959;SDS011;7052;51.050;3.716;2022-12-29T09:31:43;9.17;;;3.20;;
13959;SDS011;7052;51.050;3.716;2022-12-29T09:34:10;6.43;;;2.50;;
13959;SDS011;7052;51.050;3.716;2022-12-29T09:36:36;7.37;;;2.60;;
13959;SDS011;7052;51.050;3.716;2022-12-29T09:39:06;10.93;;;3.20;;
13959;SDS011;7052;51.050;3.716;2022-12-29T09:41:35;7.63;;;2.80;;
13959;SDS011;7052;51.050;3.716;2022-12-29T09:44:08;7.67;;;3.17;;
13959;SDS011;7052;51.050;3.716;2022-12-29T09:46:45;8.70;;;3.00;;
13959;SDS011;7052;51.050;3.716;2022-12-29T09:49:19;7.37;;;2.73;;
13959;SDS011;7052;51.050;3.716;2022-12-29T09:51:55;9.37;;;2.50;;
13959;SDS011;7052;51.050;3.716;2022-12-29T09:54:39;11.80;;;3.17;;
13959;SDS011;7052;51.050;3.716;2022-12-29T09:57:14;10.43;;;3.40;;
13959;SDS011;7052;51.050;3.716;2022-12-29T09:59:49;8.00;;;2.73;;
13959;SDS011;7052;51.050;3.716;2022-12-29T10:02:23;14.33;;;3.47;;
13959;SDS011;7052;51.050;3.716;2022-12-29T10:04:58;13.90;;;3.27;;
13959;SDS011;7052;51.050;3.716;2022-12-29T10:07:30;10.77;;;3.40;;
13959;SDS011;7052;51.050;3.716;2022-12-29T10:10:16;8.57;;;2.63;;
13959;SDS011;7052;51.050;3.716;2022-12-29T10:12:53;8.17;;;2.77;;
13959;SDS011;7052;51.050;3.716;2022-12-29T10:18:27;9.93;;;3.30;;
13959;SDS011;7052;51.050;3.716;2022-12-29T10:21:05;10.37;;;3.20;;
13959;SDS011;7052;51.050;3.716;2022-12-29T10:23:42;6.93;;;2.53;;
13959;SDS011;7052;51.050;3.716;2022-12-29T10:26:12;9.20;;;2.83;;
13959;SDS011;7052;51.050;3.716;2022-12-29T10:28:42;10.13;;;3.07;;
13959;SDS011;7052;51.050;3.716;2022-12-29T10:31:16;8.47;;;2.77;;
13959;SDS011;7052;51.050;3.716;2022-12-29T10:33:48;12.47;;;2.90;;
13959;SDS011;7052;51.050;3.716;2022-12-29T10:36:23;9.57;;;2.67;;
13959;SDS011;7052;51.050;3.716;2022-12-29T10:38:58;12.90;;;2.87;;
13959;SDS011;7052;51.050;3.716;2022-12-29T10:41:35;9.27;;;2.60;;
13959;SDS011;7052;51.050;3.716;2022-12-29T10:44:09;7.60;;;2.83;;
13959;SDS011;7052;51.050;3.716;2022-12-29T10:46:43;7.67;;;2.27;;
13959;SDS011;7052;51.050;3.716;2022-12-29T10:49:16;9.53;;;2.53;;
13959;SDS011;7052;51.050;3.716;2022-12-29T10:51:45;3.87;;;1.73;;
13959;SDS011;7052;51.050;3.716;2022-12-29T10:54:18;6.83;;;2.50;;
13959;SDS011;7052;51.050;3.716;2022-12-29T10:56:51;8.67;;;2.50;;
13959;SDS011;7052;51.050;3.716;2022-12-29T10:59:24;9.90;;;2.10;;
13959;SDS011;7052;51.050;3.716;2022-12-29T11:01:55;7.67;;;2.23;;
13959;SDS011;7052;51.050;3.716;2022-12-29T11:07:22;8.20;;;2.70;;
13959;SDS011;7052;51.050;3.716;2022-12-29T11:09:50;7.73;;;2.23;;
13959;SDS011;7052;51.050;3.716;2022-12-29T11:12:19;6.07;;;2.30;;
13959;SDS011;7052;51.050;3.716;2022-12-29T11:14:47;7.93;;;2.93;;
13959;SDS011;7052;51.050;3.716;2022-12-29T11:17:28;8.70;;;2.57;;
13959;SDS011;7052;51.050;3.716;2022-12-29T11:19:57;4.30;;;1.70;;
13959;SDS011;7052;51.050;3.716;2022-12-29T11:22:24;7.73;;;2.30;;
13959;SDS011;7052;51.050;3.716;2022-12-29T11:24:54;8.03;;;2.40;;
13959;SDS011;7052;51.050;3.716;2022-12-29T11:27:30;6.80;;;2.60;;
13959;SDS011;7052;51.050;3.716;2022-12-29T11:29:57;6.67;;;2.70;;
13959;SDS011;7052;51.050;3.716;2022-12-29T11:32:25;6.23;;;2.30;;
13959;SDS011;7052;51.050;3.716;2022-12-29T11:34:54;5.33;;;2.70;;
13959;SDS011;7052;51.050;3.716;2022-12-29T11:37:31;6.80;;;2.80;;
13959;SDS011;7052;51.050;3.716;2022-12-29T11:40:04;7.03;;;2.53;;
13959;SDS011;7052;51.050;3.716;2022-12-29T11:42:35;13.00;;;2.90;;
13959;SDS011;7052;51.050;3.716;2022-12-29T11:45:05;6.03;;;2.50;;
13959;SDS011;7052;51.050;3.716;2022-12-29T11:47:42;7.90;;;2.50;;
13959;SDS011;7052;51.050;3.716;2022-12-29T11:50:17;10.10;;;3.10;;
13959;SDS011;7052;51.050;3.716;2022-12-29T11:52:57;11.23;;;2.93;;
13959;SDS011;7052;51.050;3.716;2022-12-29T11:55:29;10.83;;;3.20;;
13959;SDS011;7052;51.050;3.716;2022-12-29T11:57:58;11.67;;;2.97;;
13959;SDS011;7052;51.050;3.716;2022-12-29T12:00:31;8.17;;;2.80;;
13959;SDS011;7052;51.050;3.716;2022-12-29T12:03:05;8.20;;;2.70;;
13959;SDS011;7052;51.050;3.716;2022-12-29T12:05:45;7.00;;;2.43;;
13959;SDS011;7052;51.050;3.716;2022-12-29T12:08:18;9.87;;;2.70;;
13959;SDS011;7052;51.050;3.716;2022-12-29T12:10:50;8.53;;;2.70;;
13959;SDS011;7052;51.050;3.716;2022-12-29T12:13:23;7.50;;;2.50;;
13959;SDS011;7052;51.050;3.716;2022-12-29T12:15:57;11.53;;;3.70;;
13959;SDS011;7052;51.050;3.716;2022-12-29T12:18:40;12.15;;;3.55;;
13959;SDS011;7052;51.050;3.716;2022-12-29T12:21:15;11.77;;;5.87;;
13959;SDS011;7052;51.050;3.716;2022-12-29T12:23:58;9.43;;;2.40;;
13959;SDS011;7052;51.050;3.716;2022-12-29T12:26:44;7.73;;;2.87;;
13959;SDS011;7052;51.050;3.716;2022-12-29T12:29:24;7.43;;;2.50;;
13959;SDS011;7052;51.050;3.716;2022-12-29T12:31:57;5.17;;;1.90;;
13959;SDS011;7052;51.050;3.716;2022-12-29T12:34:29;6.83;;;2.40;;
13959;SDS011;7052;51.050;3.716;2022-12-29T12:37:06;5.67;;;2.20;;
13959;SDS011;7052;51.050;3.716;2022-12-29T12:39:48;7.83;;;2.00;;
13959;SDS011;7052;51.050;3.716;2022-12-29T12:42:34;4.27;;;1.90;;
13959;SDS011;7052;51.050;3.716;2022-12-29T12:45:24;4.20;;;1.97;;
13959;SDS011;7052;51.050;3.716;2022-12-29T12:48:09;5.20;;;2.00;;
13959;SDS011;7052;51.050;3.716;2022-12-29T12:50:49;3.70;;;1.83;;
13959;SDS011;7052;51.050;3.716;2022-12-29T12:53:35;4.97;;;1.93;;
13959;SDS011;7052;51.050;3.716;2022-12-29T12:56:29;4.77;;;1.87;;
13959;SDS011;7052;51.050;3.716;2022-12-29T12:59:35;8.27;;;2.00;;
13959;SDS011;7052;51.050;3.716;2022-12-29T13:02:15;5.33;;;1.57;;
13959;SDS011;7052;51.050;3.716;2022-12-29T13:05:01;5.40;;;1.90;;
13959;SDS011;7052;51.050;3.716;2022-12-29T13:07:49;5.20;;;1.93;;
13959;SDS011;7052;51.050;3.716;2022-12-29T13:10:31;5.43;;;2.03;;
13959;SDS011;7052;51.050;3.716;2022-12-29T13:13:15;5.50;;;1.80;;
13959;SDS011;7052;51.050;3.716;2022-12-29T13:16:05;5.27;;;1.73;;
13959;SDS011;7052;51.050;3.716;2022-12-29T13:18:44;4.77;;;1.47;;
13959;SDS011;7052;51.050;3.716;2022-12-29T13:21:20;6.10;;;1.70;;
13959;SDS011;7052;51.050;3.716;2022-12-29T13:23:59;4.37;;;1.70;;
13959;SDS011;7052;51.050;3.716;2022-12-29T13:26:40;4.43;;;1.87;;
13959;SDS011;7052;51.050;3.716;2022-12-29T13:29:16;1.93;;;1.20;;
13959;SDS011;7052;51.050;3.716;2022-12-29T13:31:49;3.73;;;1.47;;
13959;SDS011;7052;51.050;3.716;2022-12-29T13:34:24;4.47;;;1.60;;
13959;SDS011;7052;51.050;3.716;2022-12-29T13:37:03;4.90;;;1.80;;
13959;SDS011;7052;51.050;3.716;2022-12-29T13:39:37;4.10;;;1.93;;
13959;SDS011;7052;51.050;3.716;2022-12-29T13:42:08;3.40;;;1.70;;
13959;SDS011;7052;51.050;3.716;2022-12-29T13:44:38;3.37;;;1.47;;
13959;SDS011;7052;51.050;3.716;2022-12-29T13:47:14;4.13;;;1.63;;
13959;SDS011;7052;51.050;3.716;2022-12-29T13:49:46;2.83;;;1.57;;
13959;SDS011;7052;51.050;3.716;2022-12-29T13:52:16;4.33;;;1.73;;
13959;SDS011;7052;51.050;3.716;2022-12-29T13:54:54;6.20;;;1.70;;
13959;SDS011;7052;51.050;3.716;2022-12-29T13:57:31;3.77;;;1.50;;
13959;SDS011;7052;51.050;3.716;2022-12-29T14:00:11;2.17;;;1.40;;
13959;SDS011;7052;51.050;3.716;2022-12-29T14:02:42;4.47;;;1.57;;
13959;SDS011;7052;51.050;3.716;2022-12-29T14:05:27;4.43;;;1.77;;
13959;SDS011;7052;51.050;3.716;2022-12-29T14:07:57;4.07;;;1.43;;
13959;SDS011;7052;51.050;3.716;2022-12-29T14:10:27;5.30;;;1.80;;
13959;SDS011;7052;51.050;3.716;2022-12-29T14:13:06;2.20;;;1.53;;
13959;SDS011;7052;51.050;3.716;2022-12-29T14:15:39;11.17;;;6.80;;
13959;SDS011;7052;51.050;3.716;2022-12-29T14:18:12;3.20;;;1.70;;
13959;SDS011;7052;51.050;3.716;2022-12-29T14:20:50;3.20;;;1.30;;
13959;SDS011;7052;51.050;3.716;2022-12-29T14:23:27;4.17;;;1.70;;
13959;SDS011;7052;51.050;3.716;2022-12-29T14:26:12;3.10;;;1.73;;
13959;SDS011;7052;51.050;3.716;2022-12-29T14:28:43;3.23;;;1.70;;
13959;SDS011;7052;51.050;3.716;2022-12-29T14:37:17;3.33;;;1.80;;
13959;SDS011;7052;51.050;3.716;2022-12-29T14:39:54;4.87;;;1.60;;
13959;SDS011;7052;51.050;3.716;2022-12-29T14:42:31;3.50;;;1.80;;
13959;SDS011;7052;51.050;3.716;2022-12-29T14:45:02;3.20;;;1.60;;
13959;SDS011;7052;51.050;3.716;2022-12-29T14:47:34;3.40;;;1.80;;
13959;SDS011;7052;51.050;3.716;2022-12-29T14:50:07;3.77;;;1.63;;
13959;SDS011;7052;51.050;3.716;2022-12-29T14:52:42;4.37;;;1.77;;
13959;SDS011;7052;51.050;3.716;2022-12-29T14:55:29;4.47;;;1.90;;
13959;SDS011;7052;51.050;3.716;2022-12-29T14:58:04;5.60;;;1.80;;
13959;SDS011;7052;51.050;3.716;2022-12-29T15:00:40;6.23;;;2.60;;
13959;SDS011;7052;51.050;3.716;2022-12-29T15:03:13;6.03;;;2.30;;
13959;SDS011;7052;51.050;3.716;2022-12-29T15:05:44;9.27;;;2.73;;
13959;SDS011;7052;51.050;3.716;2022-12-29T15:08:16;7.43;;;2.50;;
13959;SDS011;7052;51.050;3.716;2022-12-29T15:10:47;11.90;;;3.80;;
13959;SDS011;7052;51.050;3.716;2022-12-29T15:13:24;7.97;;;2.70;;
13959;SDS011;7052;51.050;3.716;2022-12-29T15:16:01;11.37;;;2.80;;
13959;SDS011;7052;51.050;3.716;2022-12-29T15:18:29;8.83;;;2.77;;
13959;SDS011;7052;51.050;3.716;2022-12-29T15:21:05;9.60;;;2.80;;
13959;SDS011;7052;51.050;3.716;2022-12-29T15:23:33;7.80;;;2.73;;
13959;SDS011;7052;51.050;3.716;2022-12-29T15:26:04;9.73;;;2.63;;
13959;SDS011;7052;51.050;3.716;2022-12-29T15:28:36;7.27;;;2.40;;
13959;SDS011;7052;51.050;3.716;2022-12-29T15:31:12;6.70;;;2.23;;
13959;SDS011;7052;51.050;3.716;2022-12-29T15:33:41;8.73;;;2.67;;
13959;SDS011;7052;51.050;3.716;2022-12-29T15:36:10;5.77;;;2.07;;
13959;SDS011;7052;51.050;3.716;2022-12-29T15:38:45;7.10;;;2.10;;
13959;SDS011;7052;51.050;3.716;2022-12-29T15:41:25;5.30;;;2.23;;
13959;SDS011;7052;51.050;3.716;2022-12-29T15:44:23;6.07;;;2.43;;